Time,TemperatureF,DewpointF,PressureIn,WindDirection,WindDirectionDegrees,WindSpeedMPH,WindSpeedGustMPH,Humidity,HourlyPrecipIn,Conditions,Clouds,dailyrainin,SoftwareType,DateUTC
2013-05-03 00:00:00,63.3,37.8,30.27,East,79,0.0,1.0,39,0.00,,,0.00,WUHU216DAVISVP2,2013-05-03 04:00:00,
2013-05-03 00:01:00,63.3,37.8,30.27,East,79,0.0,1.0,39,0.00,,,0.00,WUHU216DAVISVP2,2013-05-03 04:01:00,
2013-05-03 00:03:00,63.3,37.8,30.27,East,79,0.0,1.0,39,0.00,,,0.00,WUHU216DAVISVP2,2013-05-03 04:03:00,
2013-05-03 00:08:00,63.0,37.5,30.27,East,79,0.0,1.0,39,0.00,,,0.00,WUHU216DAVISVP2,2013-05-03 04:08:00,
2013-05-03 00:14:00,62.7,37.9,30.27,ENE,78,0.0,1.0,40,0.00,,,0.00,WUHU216DAVISVP2,2013-05-03 04:14:00,
2013-05-03 00:19:00,62.2,39.3,30.27,West,267,2.0,3.0,43,0.00,,,0.00,WUHU216DAVISVP2,2013-05-03 04:19:00,
2013-05-03 00:25:00,60.7,40.3,30.28,SW,228,2.0,6.0,47,0.00,,,0.00,WUHU216DAVISVP2,2013-05-03 04:25:00,
2013-05-03 00:30:00,60.3,40.5,30.28,WSW,243,2.0,6.0,48,0.00,,,0.00,WUHU216DAVISVP2,2013-05-03 04:30:00,
2013-05-03 00:35:00,60.1,40.3,30.28,WSW,242,3.0,6.0,48,0.00,,,0.00,WUHU216DAVISVP2,2013-05-03 04:35:00,
2013-05-03 00:40:00,60.1,40.9,30.28,West,277,0.0,6.0,49,0.00,,,0.00,WUHU216DAVISVP2,2013-05-03 04:40:00,
2013-05-03 00:46:00,59.9,40.1,30.27,WSW,238,0.0,3.0,48,0.00,,,0.00,WUHU216DAVISVP2,2013-05-03 04:46:00,
2013-05-03 00:51:00,60.3,40.5,30.27,SW,235,0.0,3.0,48,0.00,,,0.00,WUHU216DAVISVP2,2013-05-03 04:51:00,
2013-05-03 00:56:00,60.3,40.5,30.27,WSW,240,0.0,2.0,48,0.00,,,0.00,WUHU216DAVISVP2,2013-05-03 04:56:00,
2013-05-03 01:01:00,59.9,40.7,30.27,WSW,240,0.0,2.0,49,0.00,,,0.00,WUHU216DAVISVP2,2013-05-03 05:01:00,
2013-05-03 01:06:00,59.9,40.1,30.27,West,277,0.0,2.0,48,0.00,,,0.00,WUHU216DAVISVP2,2013-05-03 05:06:00,
2013-05-03 01:11:00,59.9,40.7,30.27,West,277,0.0,2.0,49,0.00,,,0.00,WUHU216DAVISVP2,2013-05-03 05:11:00,
2013-05-03 01:16:00,59.7,41.0,30.27,West,277,0.0,1.0,50,0.00,,,0.00,WUHU216DAVISVP2,2013-05-03 05:16:00,
2013-05-03 01:22:00,59.0,40.9,30.27,SE,132,1.0,2.0,51,0.00,,,0.00,WUHU216DAVISVP2,2013-05-03 05:22:00,
2013-05-03 01:27:00,58.6,40.5,30.27,SSW,210,1.0,2.0,51,0.00,,,0.00,WUHU216DAVISVP2,2013-05-03 05:27:00,
2013-05-03 01:32:00,58.4,44.2,30.27,SE,126,0.0,2.0,59,0.00,,,0.00,WUHU216DAVISVP2,2013-05-03 05:32:00,
2013-05-03 01:37:00,57.9,40.9,30.27,SSE,162,0.0,2.0,53,0.00,,,0.00,WUHU216DAVISVP2,2013-05-03 05:37:00,
2013-05-03 01:42:00,58.7,41.7,30.27,SSE,160,0.0,2.0,53,0.00,,,0.00,WUHU216DAVISVP2,2013-05-03 05:42:00,
2013-05-03 01:48:00,57.9,43.2,30.27,SE,132,0.0,2.0,58,0.00,,,0.00,WUHU216DAVISVP2,2013-05-03 05:48:00,
2013-05-03 01:53:00,58.0,41.0,30.27,SW,232,1.0,1.0,53,0.00,,,0.00,WUHU216DAVISVP2,2013-05-03 05:53:00,
2013-05-03 01:58:00,58.4,41.9,30.27,WSW,240,0.0,1.0,54,0.00,,,0.00,WUHU216DAVISVP2,2013-05-03 05:58:00,
2013-05-03 02:03:00,58.1,42.1,30.27,WSW,240,0.0,1.0,55,0.00,,,0.00,WUHU216DAVISVP2,2013-05-03 06:03:00,
2013-05-03 02:08:00,58.4,41.9,30.27,WSW,240,0.0,1.0,54,0.00,,,0.00,WUHU216DAVISVP2,2013-05-03 06:08:00,
2013-05-03 02:13:00,58.3,41.3,30.27,WSW,240,0.0,1.0,53,0.00,,,0.00,WUHU216DAVISVP2,2013-05-03 06:13:00,
2013-05-03 02:18:00,57.8,40.8,30.27,WSW,240,0.0,0.0,53,0.00,,,0.00,WUHU216DAVISVP2,2013-05-03 06:18:00,
2013-05-03 02:24:00,57.2,41.7,30.27,WSW,240,0.0,0.0,56,0.00,,,0.00,WUHU216DAVISVP2,2013-05-03 06:24:00,
2013-05-03 02:30:00,56.6,42.1,30.27,WSW,240,0.0,0.0,58,0.00,,,0.00,WUHU216DAVISVP2,2013-05-03 06:30:00,
2013-05-03 02:35:00,56.3,42.3,30.27,WSW,240,0.0,1.0,59,0.00,,,0.00,WUHU216DAVISVP2,2013-05-03 06:35:00,
2013-05-03 02:40:00,56.4,42.2,30.27,WSW,243,0.0,1.0,59,0.00,,,0.00,WUHU216DAVISVP2,2013-05-03 06:40:00,
2013-05-03 02:45:00,56.4,42.2,30.27,WSW,242,0.0,1.0,59,0.00,,,0.00,WUHU216DAVISVP2,2013-05-03 06:45:00,
2013-05-03 02:50:00,56.5,42.9,30.27,WSW,243,0.0,1.0,60,0.00,,,0.00,WUHU216DAVISVP2,2013-05-03 06:50:00,
2013-05-03 02:56:00,56.4,42.8,30.26,East,89,0.0,1.0,60,0.00,,,0.00,WUHU216DAVISVP2,2013-05-03 06:56:00,
2013-05-03 03:01:00,56.0,42.9,30.27,East,89,0.0,1.0,61,0.00,,,0.00,WUHU216DAVISVP2,2013-05-03 07:01:00,
2013-05-03 03:06:00,55.7,42.6,30.27,East,89,1.0,1.0,61,0.00,,,0.00,WUHU216DAVISVP2,2013-05-03 07:06:00,
2013-05-03 03:11:00,55.4,43.1,30.28,East,92,1.0,2.0,63,0.00,,,0.00,WUHU216DAVISVP2,2013-05-03 07:11:00,
2013-05-03 03:17:00,55.3,43.0,30.28,ESE,103,0.0,3.0,63,0.00,,,0.00,WUHU216DAVISVP2,2013-05-03 07:17:00,
2013-05-03 03:22:00,55.5,44.8,30.27,SE,139,0.0,3.0,67,0.00,,,0.00,WUHU216DAVISVP2,2013-05-03 07:22:00,
2013-05-03 03:27:00,55.4,44.8,30.27,SE,139,0.0,3.0,67,0.00,,,0.00,WUHU216DAVISVP2,2013-05-03 07:27:00,
2013-05-03 03:32:00,55.1,45.1,30.28,East,91,2.0,3.0,69,0.00,,,0.00,WUHU216DAVISVP2,2013-05-03 07:32:00,
2013-05-03 03:37:00,55.0,47.2,30.28,East,90,0.0,2.0,75,0.00,,,0.00,WUHU216DAVISVP2,2013-05-03 07:37:00,
2013-05-03 03:44:00,54.9,46.9,30.28,East,91,0.0,2.0,74,0.00,,,0.00,WUHU216DAVISVP2,2013-05-03 07:44:00,
2013-05-03 03:49:00,54.8,47.8,30.28,East,91,0.0,2.0,77,0.00,,,0.00,WUHU216DAVISVP2,2013-05-03 07:49:00,
2013-05-03 03:54:00,54.8,47.8,30.28,East,91,0.0,1.0,77,0.00,,,0.00,WUHU216DAVISVP2,2013-05-03 07:54:00,
2013-05-03 04:00:00,54.7,48.0,30.28,East,90,0.0,1.0,78,0.00,,,0.00,WUHU216DAVISVP2,2013-05-03 08:00:00,
2013-05-03 04:05:00,54.5,48.2,30.28,East,91,0.0,1.0,79,0.00,,,0.00,WUHU216DAVISVP2,2013-05-03 08:05:00,
2013-05-03 04:11:00,54.4,47.7,30.28,East,90,0.0,0.0,78,0.00,,,0.00,WUHU216DAVISVP2,2013-05-03 08:11:00,
2013-05-03 04:16:00,54.3,47.6,30.28,East,90,0.0,0.0,78,0.00,,,0.00,WUHU216DAVISVP2,2013-05-03 08:16:00,
2013-05-03 04:21:00,54.1,47.5,30.28,East,91,0.0,0.0,78,0.00,,,0.00,WUHU216DAVISVP2,2013-05-03 08:21:00,
2013-05-03 04:26:00,54.2,47.2,30.28,East,91,0.0,1.0,77,0.00,,,0.00,WUHU216DAVISVP2,2013-05-03 08:26:00,
2013-05-03 04:32:00,54.2,47.2,30.28,East,91,0.0,1.0,77,0.00,,,0.00,WUHU216DAVISVP2,2013-05-03 08:32:00,
2013-05-03 04:37:00,54.0,47.0,30.28,East,90,0.0,1.0,77,0.00,,,0.00,WUHU216DAVISVP2,2013-05-03 08:37:00,
2013-05-03 04:42:00,53.9,46.9,30.28,East,91,0.0,1.0,77,0.00,,,0.00,WUHU216DAVISVP2,2013-05-03 08:42:00,
2013-05-03 04:48:00,53.8,46.4,30.28,East,91,0.0,0.0,76,0.00,,,0.00,WUHU216DAVISVP2,2013-05-03 08:48:00,
2013-05-03 04:54:00,53.8,46.5,30.28,East,91,0.0,0.0,76,0.00,,,0.00,WUHU216DAVISVP2,2013-05-03 08:54:00,
2013-05-03 04:59:00,53.7,46.0,30.28,East,91,0.0,0.0,75,0.00,,,0.00,WUHU216DAVISVP2,2013-05-03 08:59:00,
2013-05-03 05:04:00,53.2,45.9,30.28,East,91,0.0,0.0,76,0.00,,,0.00,WUHU216DAVISVP2,2013-05-03 09:04:00,
2013-05-03 05:10:00,52.9,46.3,30.28,East,90,0.0,0.0,78,0.00,,,0.00,WUHU216DAVISVP2,2013-05-03 09:10:00,
2013-05-03 05:15:00,53.0,46.7,30.29,East,91,0.0,0.0,79,0.00,,,0.00,WUHU216DAVISVP2,2013-05-03 09:15:00,
2013-05-03 05:20:00,52.8,46.8,30.29,East,96,1.0,1.0,80,0.00,,,0.00,WUHU216DAVISVP2,2013-05-03 09:20:00,
2013-05-03 05:25:00,52.9,46.6,30.30,East,99,1.0,1.0,79,0.00,,,0.00,WUHU216DAVISVP2,2013-05-03 09:25:00,
2013-05-03 05:31:00,53.0,47.0,30.30,East,99,0.0,1.0,80,0.00,,,0.00,WUHU216DAVISVP2,2013-05-03 09:31:00,
2013-05-03 05:36:00,53.1,46.1,30.30,SSE,151,0.0,1.0,77,0.00,,,0.00,WUHU216DAVISVP2,2013-05-03 09:36:00,
2013-05-03 05:41:00,53.2,45.9,30.30,SSE,151,0.0,1.0,76,0.00,,,0.00,WUHU216DAVISVP2,2013-05-03 09:41:00,
2013-05-03 05:47:00,53.3,45.7,30.30,SSE,148,1.0,1.0,75,0.00,,,0.00,WUHU216DAVISVP2,2013-05-03 09:47:00,
2013-05-03 05:52:00,53.4,45.8,30.31,SSE,147,2.0,3.0,75,0.00,,,0.00,WUHU216DAVISVP2,2013-05-03 09:52:00,
2013-05-03 05:57:00,53.2,45.8,30.31,South,186,0.0,3.0,76,0.00,,,0.00,WUHU216DAVISVP2,2013-05-03 09:57:00,
2013-05-03 06:02:00,53.1,46.1,30.31,SSE,159,0.0,3.0,77,0.00,,,0.00,WUHU216DAVISVP2,2013-05-03 10:02:00,
2013-05-03 06:08:00,53.0,46.0,30.31,South,181,1.0,3.0,77,0.00,,,0.00,WUHU216DAVISVP2,2013-05-03 10:08:00,
2013-05-03 06:14:00,53.0,45.6,30.31,SE,138,0.0,2.0,76,0.00,,,0.00,WUHU216DAVISVP2,2013-05-03 10:14:00,
2013-05-03 06:19:00,53.3,45.7,30.31,SSE,155,2.0,3.0,75,0.00,,,0.00,WUHU216DAVISVP2,2013-05-03 10:19:00,
2013-05-03 06:25:00,53.5,45.9,30.31,South,175,0.0,3.0,75,0.00,,,0.00,WUHU216DAVISVP2,2013-05-03 10:25:00,
2013-05-03 06:31:00,53.7,45.7,30.31,SE,141,0.0,3.0,74,0.00,,,0.00,WUHU216DAVISVP2,2013-05-03 10:31:00,
2013-05-03 06:36:00,53.8,45.4,30.32,SSE,167,0.0,3.0,73,0.00,,,0.00,WUHU216DAVISVP2,2013-05-03 10:36:00,
2013-05-03 06:41:00,54.1,45.7,30.31,SSE,162,0.0,4.0,73,0.00,,,0.00,WUHU216DAVISVP2,2013-05-03 10:41:00,
2013-05-03 06:46:00,54.7,45.6,30.32,South,170,1.0,4.0,71,0.00,,,0.00,WUHU216DAVISVP2,2013-05-03 10:46:00,
2013-05-03 06:52:00,55.5,45.6,30.32,South,177,2.0,5.0,69,0.00,,,0.00,WUHU216DAVISVP2,2013-05-03 10:52:00,
2013-05-03 06:58:00,56.2,45.5,30.32,SSE,167,1.0,5.0,67,0.00,,,0.00,WUHU216DAVISVP2,2013-05-03 10:58:00,
2013-05-03 07:03:00,56.7,46.0,30.32,SSE,165,3.0,5.0,67,0.00,,,0.00,WUHU216DAVISVP2,2013-05-03 11:03:00,
2013-05-03 07:08:00,57.0,45.9,30.32,South,179,1.0,5.0,66,0.00,,,0.00,WUHU216DAVISVP2,2013-05-03 11:08:00,
2013-05-03 07:13:00,57.6,45.9,30.32,SSE,153,3.0,5.0,65,0.00,,,0.00,WUHU216DAVISVP2,2013-05-03 11:13:00,
2013-05-03 07:18:00,58.1,46.0,30.32,SSW,201,3.0,4.0,64,0.00,,,0.00,WUHU216DAVISVP2,2013-05-03 11:18:00,
2013-05-03 07:24:00,58.7,46.1,30.32,SSE,160,2.0,5.0,63,0.00,,,0.00,WUHU216DAVISVP2,2013-05-03 11:24:00,
2013-05-03 07:29:00,59.2,46.2,30.32,SE,142,2.0,6.0,62,0.00,,,0.00,WUHU216DAVISVP2,2013-05-03 11:29:00,
2013-05-03 07:35:00,59.4,45.9,30.32,SSE,162,4.0,7.0,61,0.00,,,0.00,WUHU216DAVISVP2,2013-05-03 11:35:00,
2013-05-03 07:40:00,60.0,46.2,30.33,South,191,2.0,11.0,60,0.00,,,0.00,WUHU216DAVISVP2,2013-05-03 11:40:00,
2013-05-03 07:45:00,60.3,46.0,30.33,SSE,154,5.0,11.0,59,0.00,,,0.00,WUHU216DAVISVP2,2013-05-03 11:45:00,
2013-05-03 07:50:00,60.9,46.1,30.33,SE,139,8.0,11.0,58,0.00,,,0.00,WUHU216DAVISVP2,2013-05-03 11:50:00,
2013-05-03 07:55:00,61.1,46.3,30.33,SE,136,2.0,11.0,58,0.00,,,0.00,WUHU216DAVISVP2,2013-05-03 11:55:00,
2013-05-03 08:00:00,61.5,45.8,30.33,SW,219,7.0,12.0,56,0.00,,,0.00,WUHU216DAVISVP2,2013-05-03 12:00:00,
2013-05-03 08:05:00,62.0,45.7,30.33,WSW,250,4.0,12.0,55,0.00,,,0.00,WUHU216DAVISVP2,2013-05-03 12:05:00,
2013-05-03 08:10:00,62.1,45.3,30.33,SSW,197,7.0,15.0,54,0.00,,,0.00,WUHU216DAVISVP2,2013-05-03 12:10:00,
2013-05-03 08:16:00,62.3,45.5,30.33,SE,146,7.0,15.0,54,0.00,,,0.00,WUHU216DAVISVP2,2013-05-03 12:16:00,
2013-05-03 08:21:00,62.5,45.2,30.33,SSW,212,4.0,15.0,53,0.00,,,0.00,WUHU216DAVISVP2,2013-05-03 12:21:00,
2013-05-03 08:26:00,62.9,45.1,30.33,SW,236,5.0,15.0,52,0.00,,,0.00,WUHU216DAVISVP2,2013-05-03 12:26:00,
2013-05-03 08:33:00,63.2,45.3,30.33,SSW,205,4.0,15.0,52,0.00,,,0.00,WUHU216DAVISVP2,2013-05-03 12:33:00,
2013-05-03 08:38:00,63.5,44.5,30.33,SSW,196,9.0,14.0,50,0.00,,,0.00,WUHU216DAVISVP2,2013-05-03 12:38:00,
2013-05-03 08:44:00,63.5,44.0,30.33,South,176,5.0,14.0,49,0.00,,,0.00,WUHU216DAVISVP2,2013-05-03 12:44:00,
2013-05-03 08:50:00,63.2,43.2,30.33,South,183,11.0,19.0,48,0.00,,,0.00,WUHU216DAVISVP2,2013-05-03 12:50:00,
2013-05-03 08:56:00,63.3,43.8,30.33,SW,214,4.0,19.0,49,0.00,,,0.00,WUHU216DAVISVP2,2013-05-03 12:56:00,
2013-05-03 09:01:00,63.5,43.4,30.33,ESE,120,1.0,19.0,48,0.00,,,0.00,WUHU216DAVISVP2,2013-05-03 13:01:00,
2013-05-03 09:06:00,63.9,43.8,30.33,South,184,10.0,19.0,48,0.00,,,0.00,WUHU216DAVISVP2,2013-05-03 13:06:00,
2013-05-03 09:11:00,64.0,43.4,30.33,South,173,6.0,17.0,47,0.00,,,0.00,WUHU216DAVISVP2,2013-05-03 13:11:00,
2013-05-03 09:16:00,64.1,43.4,30.33,South,177,5.0,17.0,47,0.00,,,0.00,WUHU216DAVISVP2,2013-05-03 13:16:00,
2013-05-03 09:21:00,64.5,42.7,30.33,SSW,201,7.0,16.0,45,0.00,,,0.00,WUHU216DAVISVP2,2013-05-03 13:21:00,
2013-05-03 09:26:00,64.6,43.3,30.33,South,169,2.0,15.0,46,0.00,,,0.00,WUHU216DAVISVP2,2013-05-03 13:26:00,
2013-05-03 09:31:00,64.9,43.0,30.33,SE,141,2.0,16.0,45,0.00,,,0.00,WUHU216DAVISVP2,2013-05-03 13:31:00,
2013-05-03 09:37:00,65.6,43.0,30.33,SE,141,6.0,16.0,44,0.00,,,0.00,WUHU216DAVISVP2,2013-05-03 13:37:00,
2013-05-03 09:42:00,65.5,42.9,30.33,SSE,155,16.0,17.0,44,0.00,,,0.00,WUHU216DAVISVP2,2013-05-03 13:42:00,
2013-05-03 09:47:00,65.6,43.0,30.33,South,172,10.0,17.0,44,0.00,,,0.00,WUHU216DAVISVP2,2013-05-03 13:47:00,
2013-05-03 09:52:00,65.7,42.5,30.33,South,170,5.0,17.0,43,0.00,,,0.00,WUHU216DAVISVP2,2013-05-03 13:52:00,
2013-05-03 09:57:00,66.0,42.8,30.33,SSE,153,6.0,17.0,43,0.00,,,0.00,WUHU216DAVISVP2,2013-05-03 13:57:00,
2013-05-03 10:02:00,66.0,42.8,30.33,SE,136,3.0,16.0,43,0.00,,,0.00,WUHU216DAVISVP2,2013-05-03 14:02:00,
2013-05-03 10:07:00,66.5,42.0,30.33,SW,214,7.0,16.0,41,0.00,,,0.00,WUHU216DAVISVP2,2013-05-03 14:07:00,
2013-05-03 10:12:00,66.7,42.8,30.33,South,181,4.0,13.0,42,0.00,,,0.00,WUHU216DAVISVP2,2013-05-03 14:12:00,
2013-05-03 10:18:00,67.3,42.7,30.33,South,189,4.0,13.0,41,0.00,,,0.00,WUHU216DAVISVP2,2013-05-03 14:18:00,
2013-05-03 10:24:00,67.3,42.0,30.33,WSW,238,5.0,17.0,40,0.00,,,0.00,WUHU216DAVISVP2,2013-05-03 14:24:00,
2013-05-03 10:29:00,67.4,42.1,30.33,SSE,165,7.0,16.0,40,0.00,,,0.00,WUHU216DAVISVP2,2013-05-03 14:29:00,
2013-05-03 10:34:00,67.6,42.3,30.33,SSE,167,5.0,16.0,40,0.00,,,0.00,WUHU216DAVISVP2,2013-05-03 14:34:00,
2013-05-03 10:40:00,67.6,42.3,30.33,NE,54,4.0,13.0,40,0.00,,,0.00,WUHU216DAVISVP2,2013-05-03 14:40:00,
2013-05-03 10:45:00,68.1,43.4,30.33,SE,139,5.0,12.0,41,0.00,,,0.00,WUHU216DAVISVP2,2013-05-03 14:45:00,
2013-05-03 10:51:00,68.2,42.2,30.33,SSW,206,3.0,13.0,39,0.00,,,0.00,WUHU216DAVISVP2,2013-05-03 14:51:00,
2013-05-03 10:56:00,68.4,41.6,30.33,SE,135,10.0,13.0,38,0.00,,,0.00,WUHU216DAVISVP2,2013-05-03 14:56:00,
2013-05-03 11:01:00,68.3,42.2,30.33,SSW,208,1.0,15.0,39,0.00,,,0.00,WUHU216DAVISVP2,2013-05-03 15:01:00,
2013-05-03 11:07:00,68.7,43.4,30.33,SE,140,4.0,15.0,40,0.00,,,0.00,WUHU216DAVISVP2,2013-05-03 15:07:00,
2013-05-03 11:12:00,69.3,42.6,30.33,ESE,119,5.0,15.0,38,0.00,,,0.00,WUHU216DAVISVP2,2013-05-03 15:12:00,
2013-05-03 11:17:00,69.5,42.6,30.33,SE,133,7.0,13.0,38,0.00,,,0.00,WUHU216DAVISVP2,2013-05-03 15:17:00,
2013-05-03 11:22:00,69.3,41.7,30.33,South,171,2.0,17.0,37,0.00,,,0.00,WUHU216DAVISVP2,2013-05-03 15:22:00,
2013-05-03 11:28:00,69.6,42.7,30.33,West,260,3.0,17.0,38,0.00,,,0.00,WUHU216DAVISVP2,2013-05-03 15:28:00,
2013-05-03 11:35:00,69.8,42.9,30.33,SE,131,5.0,17.0,38,0.00,,,0.00,WUHU216DAVISVP2,2013-05-03 15:35:00,
2013-05-03 11:40:00,70.2,43.3,30.33,SE,142,2.0,12.0,38,0.00,,,0.00,WUHU216DAVISVP2,2013-05-03 15:40:00,
2013-05-03 11:47:00,70.6,42.2,30.33,SE,141,6.0,13.0,36,0.00,,,0.00,WUHU216DAVISVP2,2013-05-03 15:47:00,
2013-05-03 11:52:00,70.4,41.3,30.32,SSW,195,4.0,13.0,35,0.00,,,0.00,WUHU216DAVISVP2,2013-05-03 15:52:00,
2013-05-03 11:57:00,70.3,41.3,30.32,SE,143,5.0,14.0,35,0.00,,,0.00,WUHU216DAVISVP2,2013-05-03 15:57:00,
2013-05-03 12:02:00,70.4,41.4,30.32,SSE,151,6.0,14.0,35,0.00,,,0.00,WUHU216DAVISVP2,2013-05-03 16:02:00,
2013-05-03 12:08:00,71.1,41.1,30.32,SSE,162,4.0,14.0,34,0.00,,,0.00,WUHU216DAVISVP2,2013-05-03 16:08:00,
2013-05-03 12:13:00,71.6,43.1,30.32,SSE,147,4.0,14.0,36,0.00,,,0.00,WUHU216DAVISVP2,2013-05-03 16:13:00,
2013-05-03 12:19:00,71.8,41.7,30.32,South,180,4.0,12.0,34,0.00,,,0.00,WUHU216DAVISVP2,2013-05-03 16:19:00,
2013-05-03 12:24:00,71.7,42.6,30.31,South,178,1.0,12.0,35,0.00,,,0.00,WUHU216DAVISVP2,2013-05-03 16:24:00,
2013-05-03 12:29:00,71.9,42.0,30.31,SSW,200,2.0,15.0,34,0.00,,,0.00,WUHU216DAVISVP2,2013-05-03 16:29:00,
2013-05-03 12:35:00,72.1,42.8,30.31,SW,230,7.0,15.0,35,0.00,,,0.00,WUHU216DAVISVP2,2013-05-03 16:35:00,
2013-05-03 12:40:00,72.9,43.5,30.31,SSE,152,4.0,15.0,35,0.00,,,0.00,WUHU216DAVISVP2,2013-05-03 16:40:00,
2013-05-03 12:45:00,73.3,43.1,30.31,SSE,150,4.0,15.0,34,0.00,,,0.00,WUHU216DAVISVP2,2013-05-03 16:45:00,
2013-05-03 12:52:00,73.2,42.4,30.30,SE,135,3.0,12.0,33,0.00,,,0.00,WUHU216DAVISVP2,2013-05-03 16:52:00,
2013-05-03 12:57:00,73.7,44.3,30.30,SSE,160,4.0,12.0,35,0.00,,,0.00,WUHU216DAVISVP2,2013-05-03 16:57:00,
2013-05-03 13:02:00,73.4,42.5,30.30,SSE,163,2.0,10.0,33,0.00,,,0.00,WUHU216DAVISVP2,2013-05-03 17:02:00,
2013-05-03 13:09:00,73.4,42.4,30.30,SE,136,6.0,10.0,33,0.00,,,0.00,WUHU216DAVISVP2,2013-05-03 17:09:00,
2013-05-03 13:14:00,73.0,43.6,30.30,SSE,156,6.0,10.0,35,0.00,,,0.00,WUHU216DAVISVP2,2013-05-03 17:14:00,
2013-05-03 13:19:00,74.0,43.7,30.30,SE,131,3.0,10.0,34,0.00,,,0.00,WUHU216DAVISVP2,2013-05-03 17:19:00,
2013-05-03 13:24:00,73.5,42.5,30.30,ENE,76,7.0,10.0,33,0.00,,,0.00,WUHU216DAVISVP2,2013-05-03 17:24:00,
2013-05-03 13:29:00,73.4,42.5,30.30,SE,146,4.0,10.0,33,0.00,,,0.00,WUHU216DAVISVP2,2013-05-03 17:29:00,
2013-05-03 13:34:00,73.3,42.4,30.30,ESE,111,6.0,10.0,33,0.00,,,0.00,WUHU216DAVISVP2,2013-05-03 17:34:00,
2013-05-03 13:39:00,73.9,43.6,30.29,ESE,120,2.0,9.0,34,0.00,,,0.00,WUHU216DAVISVP2,2013-05-03 17:39:00,
2013-05-03 13:44:00,74.6,41.1,30.29,SE,138,4.0,9.0,30,0.00,,,0.00,WUHU216DAVISVP2,2013-05-03 17:44:00,
2013-05-03 13:49:00,74.4,42.6,30.29,South,191,4.0,9.0,32,0.00,,,0.00,WUHU216DAVISVP2,2013-05-03 17:49:00,
2013-05-03 13:54:00,74.3,43.3,30.29,SE,132,6.0,10.0,33,0.00,,,0.00,WUHU216DAVISVP2,2013-05-03 17:54:00,
2013-05-03 13:59:00,74.3,43.2,30.29,SE,141,1.0,10.0,33,0.00,,,0.00,WUHU216DAVISVP2,2013-05-03 17:59:00,
2013-05-03 14:05:00,74.4,42.6,30.29,SE,143,1.0,10.0,32,0.00,,,0.00,WUHU216DAVISVP2,2013-05-03 18:05:00,
2013-05-03 14:10:00,74.8,43.6,30.29,SSE,156,6.0,10.0,33,0.00,,,0.00,WUHU216DAVISVP2,2013-05-03 18:10:00,
2013-05-03 14:17:00,74.8,42.8,30.29,South,185,4.0,12.0,32,0.00,,,0.00,WUHU216DAVISVP2,2013-05-03 18:17:00,
2013-05-03 14:22:00,74.8,42.8,30.28,South,183,5.0,12.0,32,0.00,,,0.00,WUHU216DAVISVP2,2013-05-03 18:22:00,
2013-05-03 14:27:00,74.8,43.6,30.28,SSW,212,2.0,12.0,33,0.00,,,0.00,WUHU216DAVISVP2,2013-05-03 18:27:00,
2013-05-03 14:32:00,75.5,42.6,30.28,SSE,166,3.0,12.0,31,0.00,,,0.00,WUHU216DAVISVP2,2013-05-03 18:32:00,
2013-05-03 14:38:00,75.0,43.0,30.28,WSW,250,6.0,11.0,32,0.00,,,0.00,WUHU216DAVISVP2,2013-05-03 18:38:00,
2013-05-03 14:44:00,74.8,42.8,30.27,SSE,148,3.0,11.0,32,0.00,,,0.00,WUHU216DAVISVP2,2013-05-03 18:44:00,
2013-05-03 14:49:00,75.3,43.2,30.27,SE,131,4.0,11.0,32,0.00,,,0.00,WUHU216DAVISVP2,2013-05-03 18:49:00,
2013-05-03 14:54:00,75.5,42.6,30.27,SSE,162,2.0,10.0,31,0.00,,,0.00,WUHU216DAVISVP2,2013-05-03 18:54:00,
2013-05-03 14:59:00,75.5,42.6,30.27,South,184,4.0,12.0,31,0.00,,,0.00,WUHU216DAVISVP2,2013-05-03 18:59:00,
2013-05-03 15:04:00,75.3,42.4,30.27,SSE,156,4.0,12.0,31,0.00,,,0.00,WUHU216DAVISVP2,2013-05-03 19:04:00,
2013-05-03 15:10:00,75.7,42.7,30.26,WSW,246,2.0,11.0,31,0.00,,,0.00,WUHU216DAVISVP2,2013-05-03 19:10:00,
2013-05-03 15:15:00,76.0,43.8,30.26,SSE,158,7.0,12.0,32,0.00,,,0.00,WUHU216DAVISVP2,2013-05-03 19:15:00,
2013-05-03 15:20:00,75.5,43.6,30.26,SSE,162,5.0,12.0,32,0.00,,,0.00,WUHU216DAVISVP2,2013-05-03 19:20:00,
2013-05-03 15:25:00,75.7,43.6,30.26,ESE,114,2.0,12.0,32,0.00,,,0.00,WUHU216DAVISVP2,2013-05-03 19:25:00,
2013-05-03 15:30:00,75.9,42.9,30.25,SE,143,3.0,12.0,31,0.00,,,0.00,WUHU216DAVISVP2,2013-05-03 19:30:00,
2013-05-03 15:37:00,76.4,43.4,30.25,SSE,158,3.0,9.0,31,0.00,,,0.00,WUHU216DAVISVP2,2013-05-03 19:37:00,
2013-05-03 15:42:00,76.1,43.1,30.25,SW,214,4.0,9.0,31,0.00,,,0.00,WUHU216DAVISVP2,2013-05-03 19:42:00,
2013-05-03 15:49:00,76.5,44.3,30.25,SSW,203,3.0,9.0,32,0.00,,,0.00,WUHU216DAVISVP2,2013-05-03 19:49:00,
2013-05-03 15:54:00,76.8,43.9,30.25,South,174,1.0,8.0,31,0.00,,,0.00,WUHU216DAVISVP2,2013-05-03 19:54:00,
2013-05-03 15:59:00,76.9,44.6,30.25,SE,138,3.0,7.0,32,0.00,,,0.00,WUHU216DAVISVP2,2013-05-03 19:59:00,
2013-05-03 16:04:00,76.6,42.7,30.24,SW,219,4.0,9.0,30,0.00,,,0.00,WUHU216DAVISVP2,2013-05-03 20:04:00,
2013-05-03 16:09:00,76.5,42.6,30.24,South,177,1.0,9.0,30,0.00,,,0.00,WUHU216DAVISVP2,2013-05-03 20:09:00,
2013-05-03 16:14:00,76.4,43.4,30.24,SSE,160,4.0,10.0,31,0.00,,,0.00,WUHU216DAVISVP2,2013-05-03 20:14:00,
2013-05-03 16:20:00,77.2,44.1,30.24,WSW,250,4.0,10.0,31,0.00,,,0.00,WUHU216DAVISVP2,2013-05-03 20:20:00,
2013-05-03 16:26:00,77.1,43.1,30.24,SSW,195,3.0,11.0,30,0.00,,,0.00,WUHU216DAVISVP2,2013-05-03 20:26:00,
2013-05-03 16:33:00,76.7,43.8,30.24,NW,321,4.0,11.0,31,0.00,,,0.00,WUHU216DAVISVP2,2013-05-03 20:33:00,
2013-05-03 16:38:00,76.7,42.8,30.24,East,94,6.0,11.0,30,0.00,,,0.00,WUHU216DAVISVP2,2013-05-03 20:38:00,
2013-05-03 16:43:00,76.6,43.5,30.24,SSE,150,6.0,10.0,31,0.00,,,0.00,WUHU216DAVISVP2,2013-05-03 20:43:00,
2013-05-03 16:48:00,76.8,43.7,30.24,ENE,65,1.0,10.0,31,0.00,,,0.00,WUHU216DAVISVP2,2013-05-03 20:48:00,
2013-05-03 16:53:00,77.4,43.4,30.23,SE,142,2.0,10.0,30,0.00,,,0.00,WUHU216DAVISVP2,2013-05-03 20:53:00,
2013-05-03 16:58:00,77.4,43.4,30.23,SSE,166,2.0,9.0,30,0.00,,,0.00,WUHU216DAVISVP2,2013-05-03 20:58:00,
2013-05-03 17:03:00,77.1,43.1,30.23,South,177,5.0,8.0,30,0.00,,,0.00,WUHU216DAVISVP2,2013-05-03 21:03:00,
2013-05-03 17:08:00,77.0,43.9,30.23,SW,222,1.0,8.0,31,0.00,,,0.00,WUHU216DAVISVP2,2013-05-03 21:08:00,
2013-05-03 17:14:00,76.8,43.7,30.23,NE,54,1.0,8.0,31,0.00,,,0.00,WUHU216DAVISVP2,2013-05-03 21:14:00,
2013-05-03 17:19:00,77.0,43.0,30.23,South,169,4.0,8.0,30,0.00,,,0.00,WUHU216DAVISVP2,2013-05-03 21:19:00,
2013-05-03 17:24:00,77.0,43.9,30.23,SSE,148,2.0,8.0,31,0.00,,,0.00,WUHU216DAVISVP2,2013-05-03 21:24:00,
2013-05-03 17:30:00,77.3,43.3,30.23,SSE,162,4.0,8.0,30,0.00,,,0.00,WUHU216DAVISVP2,2013-05-03 21:30:00,
2013-05-03 17:35:00,77.2,44.9,30.23,SE,124,3.0,8.0,32,0.00,,,0.00,WUHU216DAVISVP2,2013-05-03 21:35:00,
2013-05-03 17:40:00,77.0,43.0,30.23,South,177,2.0,9.0,30,0.00,,,0.00,WUHU216DAVISVP2,2013-05-03 21:40:00,
2013-05-03 17:46:00,76.9,42.9,30.23,SSE,151,3.0,9.0,30,0.00,,,0.00,WUHU216DAVISVP2,2013-05-03 21:46:00,
2013-05-03 17:51:00,76.9,42.9,30.22,SSE,156,2.0,9.0,30,0.00,,,0.00,WUHU216DAVISVP2,2013-05-03 21:51:00,
2013-05-03 17:56:00,77.0,43.0,30.23,SE,135,1.0,8.0,30,0.00,,,0.00,WUHU216DAVISVP2,2013-05-03 21:56:00,
2013-05-03 18:01:00,77.0,43.0,30.23,SSE,158,5.0,8.0,30,0.00,,,0.00,WUHU216DAVISVP2,2013-05-03 22:01:00,
2013-05-03 18:06:00,76.7,42.8,30.22,ESE,121,1.0,8.0,30,0.00,,,0.00,WUHU216DAVISVP2,2013-05-03 22:06:00,
2013-05-03 18:12:00,76.8,43.7,30.22,SSE,164,4.0,8.0,31,0.00,,,0.00,WUHU216DAVISVP2,2013-05-03 22:12:00,
2013-05-03 18:17:00,76.8,42.9,30.22,SSE,156,3.0,8.0,30,0.00,,,0.00,WUHU216DAVISVP2,2013-05-03 22:17:00,
2013-05-03 18:22:00,76.5,42.6,30.22,South,187,1.0,8.0,30,0.00,,,0.00,WUHU216DAVISVP2,2013-05-03 22:22:00,
2013-05-03 18:27:00,76.8,42.9,30.22,SSW,203,2.0,8.0,30,0.00,,,0.00,WUHU216DAVISVP2,2013-05-03 22:27:00,
2013-05-03 18:32:00,76.8,42.9,30.22,SE,145,3.0,8.0,30,0.00,,,0.00,WUHU216DAVISVP2,2013-05-03 22:32:00,
2013-05-03 18:37:00,76.6,42.7,30.22,SSE,160,2.0,6.0,30,0.00,,,0.00,WUHU216DAVISVP2,2013-05-03 22:37:00,
2013-05-03 18:43:00,76.5,42.6,30.22,SSE,164,1.0,5.0,30,0.00,,,0.00,WUHU216DAVISVP2,2013-05-03 22:43:00,
2013-05-03 18:49:00,76.4,41.6,30.22,SSW,208,2.0,6.0,29,0.00,,,0.00,WUHU216DAVISVP2,2013-05-03 22:49:00,
2013-05-03 18:54:00,76.3,42.4,30.22,SE,145,0.0,6.0,30,0.00,,,0.00,WUHU216DAVISVP2,2013-05-03 22:54:00,
2013-05-03 19:00:00,76.5,42.6,30.22,South,172,0.0,6.0,30,0.00,,,0.00,WUHU216DAVISVP2,2013-05-03 23:00:00,
2013-05-03 19:05:00,76.2,42.3,30.22,SE,138,1.0,5.0,30,0.00,,,0.00,WUHU216DAVISVP2,2013-05-03 23:05:00,
2013-05-03 19:10:00,76.0,42.2,30.22,South,175,2.0,6.0,30,0.00,,,0.00,WUHU216DAVISVP2,2013-05-03 23:10:00,
2013-05-03 19:16:00,75.7,42.7,30.22,SSW,203,0.0,6.0,31,0.00,,,0.00,WUHU216DAVISVP2,2013-05-03 23:16:00,
2013-05-03 19:21:00,75.6,42.7,30.22,SSE,151,1.0,6.0,31,0.00,,,0.00,WUHU216DAVISVP2,2013-05-03 23:21:00,
2013-05-03 19:26:00,75.6,42.7,30.22,SSW,195,1.0,6.0,31,0.00,,,0.00,WUHU216DAVISVP2,2013-05-03 23:26:00,
2013-05-03 19:31:00,75.3,43.2,30.22,SE,146,0.0,4.0,32,0.00,,,0.00,WUHU216DAVISVP2,2013-05-03 23:31:00,
2013-05-03 19:36:00,75.0,43.8,30.22,SSE,153,0.0,4.0,33,0.00,,,0.00,WUHU216DAVISVP2,2013-05-03 23:36:00,
2013-05-03 19:41:00,74.4,43.2,30.22,SSE,155,2.0,3.0,33,0.00,,,0.00,WUHU216DAVISVP2,2013-05-03 23:41:00,
2013-05-03 19:47:00,73.9,43.0,30.22,SSE,153,1.0,3.0,33,0.00,,,0.00,WUHU216DAVISVP2,2013-05-03 23:47:00,
2013-05-03 19:52:00,73.4,43.3,30.22,SE,136,0.0,3.0,34,0.00,,,0.00,WUHU216DAVISVP2,2013-05-03 23:52:00,
2013-05-03 19:58:00,72.4,43.2,30.22,SE,127,0.0,3.0,35,0.00,,,0.00,WUHU216DAVISVP2,2013-05-03 23:58:00,
2013-05-03 20:03:00,71.7,43.3,30.22,South,189,1.0,3.0,36,0.00,,,0.00,WUHU216DAVISVP2,2013-05-04 00:03:00,
2013-05-03 20:10:00,71.2,43.6,30.22,South,170,0.0,4.0,37,0.00,,,0.00,WUHU216DAVISVP2,2013-05-04 00:10:00,
2013-05-03 20:15:00,70.7,43.1,30.23,SSE,156,0.0,4.0,37,0.00,,,0.00,WUHU216DAVISVP2,2013-05-04 00:15:00,
2013-05-03 20:20:00,70.2,43.4,30.23,SE,142,0.0,4.0,38,0.00,,,0.00,WUHU216DAVISVP2,2013-05-04 00:20:00,
2013-05-03 20:26:00,69.6,43.5,30.23,SE,142,0.0,4.0,39,0.00,,,0.00,WUHU216DAVISVP2,2013-05-04 00:26:00,
2013-05-03 20:32:00,69.2,43.2,30.23,ENE,75,2.0,2.0,39,0.00,,,0.00,WUHU216DAVISVP2,2013-05-04 00:32:00,
2013-05-03 20:37:00,68.7,44.7,30.23,ENE,71,2.0,3.0,42,0.00,,,0.00,WUHU216DAVISVP2,2013-05-04 00:37:00,
2013-05-03 20:43:00,68.6,45.2,30.24,ESE,110,1.0,3.0,43,0.00,,,0.00,WUHU216DAVISVP2,2013-05-04 00:43:00,
2013-05-03 20:48:00,69.0,44.3,30.24,East,86,3.0,5.0,41,0.00,,,0.00,WUHU216DAVISVP2,2013-05-04 00:48:00,
2013-05-03 20:53:00,69.3,44.5,30.24,East,86,0.0,5.0,41,0.00,,,0.00,WUHU216DAVISVP2,2013-05-04 00:53:00,
2013-05-03 20:58:00,69.1,44.9,30.24,East,91,0.0,5.0,42,0.00,,,0.00,WUHU216DAVISVP2,2013-05-04 00:58:00,
2013-05-03 21:03:00,68.8,44.7,30.24,ESE,108,1.0,4.0,42,0.00,,,0.00,WUHU216DAVISVP2,2013-05-04 01:03:00,
2013-05-03 21:09:00,68.7,44.6,30.24,ESE,107,2.0,4.0,42,0.00,,,0.00,WUHU216DAVISVP2,2013-05-04 01:09:00,
2013-05-03 21:14:00,68.8,44.7,30.24,East,81,2.0,4.0,42,0.00,,,0.00,WUHU216DAVISVP2,2013-05-04 01:14:00,
2013-05-03 21:19:00,68.5,44.4,30.24,ENE,75,2.0,4.0,42,0.00,,,0.00,WUHU216DAVISVP2,2013-05-04 01:19:00,
2013-05-03 21:26:00,68.4,44.3,30.25,ENE,74,1.0,4.0,42,0.00,,,0.00,WUHU216DAVISVP2,2013-05-04 01:26:00,
2013-05-03 21:31:00,68.0,44.6,30.25,ESE,103,0.0,3.0,43,0.00,,,0.00,WUHU216DAVISVP2,2013-05-04 01:31:00,
2013-05-03 21:36:00,67.5,45.4,30.25,ESE,103,0.0,3.0,45,0.00,,,0.00,WUHU216DAVISVP2,2013-05-04 01:36:00,
2013-05-03 21:42:00,67.2,44.5,30.25,East,86,1.0,2.0,44,0.00,,,0.00,WUHU216DAVISVP2,2013-05-04 01:42:00,
2013-05-03 21:47:00,67.1,45.0,30.25,East,89,0.0,3.0,45,0.00,,,0.00,WUHU216DAVISVP2,2013-05-04 01:47:00,
2013-05-03 21:52:00,66.8,44.7,30.25,SE,131,0.0,3.0,45,0.00,,,0.00,WUHU216DAVISVP2,2013-05-04 01:52:00,
2013-05-03 21:57:00,66.2,45.4,30.25,East,95,0.0,2.0,47,0.00,,,0.00,WUHU216DAVISVP2,2013-05-04 01:57:00,
2013-05-03 22:02:00,65.7,44.9,30.25,East,94,0.0,2.0,47,0.00,,,0.00,WUHU216DAVISVP2,2013-05-04 02:02:00,
2013-05-03 22:07:00,65.5,45.3,30.25,East,93,0.0,2.0,48,0.00,,,0.00,WUHU216DAVISVP2,2013-05-04 02:07:00,
2013-05-03 22:13:00,65.3,45.6,30.25,East,101,0.0,2.0,49,0.00,,,0.00,WUHU216DAVISVP2,2013-05-04 02:13:00,
2013-05-03 22:18:00,65.0,45.9,30.25,ESE,110,0.0,2.0,50,0.00,,,0.00,WUHU216DAVISVP2,2013-05-04 02:18:00,
2013-05-03 22:24:00,64.7,45.7,30.25,ESE,115,0.0,2.0,50,0.00,,,0.00,WUHU216DAVISVP2,2013-05-04 02:24:00,
2013-05-03 22:29:00,64.2,45.7,30.25,SW,228,1.0,2.0,51,0.00,,,0.00,WUHU216DAVISVP2,2013-05-04 02:29:00,
2013-05-03 22:34:00,63.2,46.4,30.25,SW,233,0.0,2.0,54,0.00,,,0.00,WUHU216DAVISVP2,2013-05-04 02:34:00,
2013-05-03 22:39:00,62.9,46.1,30.25,SW,233,0.0,1.0,54,0.00,,,0.00,WUHU216DAVISVP2,2013-05-04 02:39:00,
2013-05-03 22:45:00,62.7,46.4,30.25,SW,233,0.0,1.0,55,0.00,,,0.00,WUHU216DAVISVP2,2013-05-04 02:45:00,
2013-05-03 22:51:00,62.6,46.3,30.25,WSW,238,0.0,1.0,55,0.00,,,0.00,WUHU216DAVISVP2,2013-05-04 02:51:00,
2013-05-03 22:56:00,62.4,45.6,30.26,SSE,163,1.0,2.0,54,0.00,,,0.00,WUHU216DAVISVP2,2013-05-04 02:56:00,
2013-05-03 23:01:00,61.9,47.1,30.25,East,82,1.0,2.0,58,0.00,,,0.00,WUHU216DAVISVP2,2013-05-04 03:01:00,
2013-05-03 23:06:00,62.2,44.9,30.25,SSE,163,1.0,7.0,53,0.00,,,0.00,WUHU216DAVISVP2,2013-05-04 03:06:00,
2013-05-03 23:12:00,62.4,44.1,30.25,SSE,154,2.0,7.0,51,0.00,,,0.00,WUHU216DAVISVP2,2013-05-04 03:12:00,
2013-05-03 23:20:00,62.3,42.9,30.25,SSE,152,3.0,7.0,49,0.00,,,0.00,WUHU216DAVISVP2,2013-05-04 03:20:00,
2013-05-03 23:26:00,62.1,42.2,30.25,SSE,158,3.0,6.0,48,0.00,,,0.00,WUHU216DAVISVP2,2013-05-04 03:26:00,
2013-05-03 23:32:00,61.8,41.9,30.25,SSE,165,2.0,6.0,48,0.00,,,0.00,WUHU216DAVISVP2,2013-05-04 03:32:00,
2013-05-03 23:37:00,61.6,41.7,30.25,SSE,148,1.0,6.0,48,0.00,,,0.00,WUHU216DAVISVP2,2013-05-04 03:37:00,
2013-05-03 23:43:00,61.4,41.0,30.25,SSE,147,1.0,5.0,47,0.00,,,0.00,WUHU216DAVISVP2,2013-05-04 03:43:00,
2013-05-03 23:48:00,61.4,40.4,30.26,SE,145,1.0,6.0,46,0.00,,,0.00,WUHU216DAVISVP2,2013-05-04 03:48:00,
2013-05-03 23:53:00,61.4,39.8,30.26,SSE,150,3.0,8.0,45,0.00,,,0.00,WUHU216DAVISVP2,2013-05-04 03:53:00,
2013-05-03 23:59:00,61.3,39.7,30.26,ESE,104,3.0,8.0,45,0.00,,,0.00,WUHU216DAVISVP2,2013-05-04 03:59:00,